Flight Track Log - Related Links

Times and Time Zones

All times are in EDT time to prevent confusion due to time zone crossing. See the EJA922 flight status page for this flight to view local times or setup timezone preferences in your user account.

Time Position Orientation Groundspeed Altitude Reporting Facility
EDT Latitude Longitude Course Direction KTS MPH feet Rate Location/Type
14:14 39.5333 -104.8333 105° East 199 229 7,200  Level Denver TRACON
14:15 39.5167 -104.7500 105° East 279 321 9,600 2,600 Climbing Denver TRACON
14:16 39.5333 -104.6667 75° East 303 349 12,400 3,415 Climbing Denver TRACON
14:17 39.6006 -104.5964 39° Northeast 307 353 16,600 2,784 Climbing Denver Center
14:18 39.6617 -104.5042 49° Northeast 345 397 18,200 1,548 Climbing Denver Center
14:19 39.7206 -104.3781 59° Northeast 383 441 19,800 1,488 Climbing Denver Center
14:20 39.7633 -104.2422 68° East 404 465 21,300 1,344 Climbing Denver Center
14:21 39.8094 -104.0911 68° East 418 481 22,600 1,306 Climbing Denver Center
14:22 39.8533 -103.9456 69° East 430 495 24,000 1,548 Climbing Denver Center
14:23 39.8961 -103.8028 69° East 423 487 25,800 1,548 Climbing Denver Center
14:24 39.9406 -103.6589 68° East 426 490 27,200 1,355 Climbing Denver Center
14:25 39.9844 -103.5089 69° East 439 505 28,600 1,403 Climbing Denver Center
14:26 40.0394 -103.3239 69° East 454 522 30,100 1,355 Climbing Denver Center
14:27 40.0858 -103.1669 69° East 461 531 31,400 1,258 Climbing Denver Center
14:28 40.1328 -103.0081 69° East 467 537 32,700 1,258 Climbing Denver Center
14:29 40.1775 -102.8447 70° East 475 547 34,000 1,306 Climbing Denver Center
14:30 40.2267 -102.6653 70° East 486 559 35,400 1,500 Climbing Denver Center
14:31 40.2769 -102.4786 71° East 488 562 37,100 1,500 Climbing Denver Center
14:32 40.3197 -102.3181 71° East 488 562 38,500 1,296 Climbing Denver Center
14:33 40.3642 -102.1603 70° East 485 558 39,800 1,152 Climbing Denver Center
14:34 40.4128 -101.9758 71° East 479 551 40,900 581 Climbing Denver Center
14:35 40.4558 -101.8178 70° East 481 554 41,000 48 Climbing Denver Center
14:36 40.5061 -101.6297 71° East 487 560 41,000  Level Denver Center
14:37 40.5483 -101.4658 71° East 492 566 41,000  Level Denver Center
14:38 40.5978 -101.2761 71° East 494 568 41,000  Level Denver Center
14:39 40.6397 -101.1131 71° East 493 567 41,000  Level Denver Center
14:40 40.6878 -100.9228 72° East 493 567 41,000  Level Denver Center
14:41 40.7269 -100.7600 72° East 496 571 41,000  Level Denver Center
14:42 40.7781 -100.5706 70° East 504 580 41,000  Level Denver Center
14:44 40.8261 -100.3814 71° East 493 567 41,000  Level Denver Center
14:45 40.8669 -100.2172 72° East 493 567 41,000  Level Denver Center
14:46 40.9142 -100.0267 72° East 491 565 41,000  Level Denver Center
14:47 40.9547 -99.8633 72° East 490 564 41,000  Level Denver Center
14:48 40.9942 -99.7000 72° East 489 563 41,000  Level Denver Center
14:49 41.0442 -99.4936 72° East 490 564 41,000  Level Denver Center
14:50 41.0853 -99.3206 72° East 491 565 41,000  Level Denver Center
14:51 41.1267 -99.1478 72° East 491 565 41,000  Level Denver Center
14:52 41.1647 -98.9850 73° East 491 565 41,000  Level Denver Center
14:53 41.2106 -98.7894 73° East 495 570 41,000  Level Denver Center
14:54 41.2536 -98.6089 72° East 500 575 41,000  Level Denver Center
14:55 41.2933 -98.4339 73° East 494 568 41,000  Level Denver Center
14:56 41.3492 -98.1894 73° East 493 567 41,000  Level Minneapolis Center
14:57 41.3897 -98.0108 73° East 491 565 41,000  Level Minneapolis Center
14:58 41.4292 -97.8358 73° East 493 567 41,000  Level Minneapolis Center
14:59 41.4675 -97.6606 74° East 493 567 41,000  Level Minneapolis Center
15:00 41.5153 -97.4492 73° East 495 570 41,000  Level Minneapolis Center
15:01 41.5550 -97.2717 73° East 497 572 41,000  Level Minneapolis Center
15:03 41.5919 -97.0928 75° East 499 574 41,000  Level Minneapolis Center
15:04 41.6311 -96.9131 74° East 502 578 41,000  Level Minneapolis Center
15:05 41.6706 -96.7333 74° East 503 579 41,000  Level Minneapolis Center
15:06 41.7072 -96.5531 75° East 501 577 41,000  Level Minneapolis Center
15:07 41.7453 -96.3733 74° East 499 574 41,000  Level Minneapolis Center
15:08 41.7906 -96.1567 74° East 499 574 41,000  Level Minneapolis Center
15:09 41.8272 -95.9750 75° East 500 575 41,000  Level Minneapolis Center
15:10 41.8639 -95.7917 75° East 504 580 41,000  Level Minneapolis Center
15:11 41.9006 -95.6103 75° East 502 578 41,000  Level Minneapolis Center
15:12 41.9372 -95.4278 75° East 504 580 41,000  Level Minneapolis Center
15:13 41.9736 -95.2475 75° East 501 577 41,000  Level Minneapolis Center
15:14 42.0083 -95.0656 76° East 502 578 41,000  Level Minneapolis Center
15:15 42.0444 -94.8811 75° East 508 585 41,000  Level Minneapolis Center
15:16 42.0864 -94.6617 75° East 506 582 41,000  Level Minneapolis Center
15:17 42.1214 -94.4775 76° East 507 583 41,000  Level Minneapolis Center
15:18 42.1567 -94.2944 75° East 505 581 41,000  Level Minneapolis Center
15:19 42.1908 -94.1103 76° East 506 582 41,000  Level Minneapolis Center
15:20 42.2294 -93.9067 76° East 507 583 41,000  Level Minneapolis Center
15:21 42.2633 -93.7206 76° East 513 590 41,000  Level Minneapolis Center
15:22 42.2969 -93.5361 76° East 512 589 41,000  Level Minneapolis Center
15:23 42.3294 -93.3511 77° East 512 589 41,000  Level Minneapolis Center
15:24 42.3711 -93.1294 76° East 511 588 41,000  Level Minneapolis Center
15:25 42.4033 -92.9450 77° East 510 587 41,000  Level Minneapolis Center
15:26 42.4367 -92.7589 76° East 511 588 41,000  Level Minneapolis Center
15:27 42.4681 -92.5722 77° East 514 592 41,000  Level Minneapolis Center
15:28 42.4994 -92.3878 77° East 510 587 41,000  Level Minneapolis Center
15:29 42.5369 -92.1656 77° East 510 587 41,000  Level Minneapolis Center
15:30 42.5683 -91.9803 77° East 510 587 41,000  Level Minneapolis Center
15:32 42.5992 -91.7947 77° East 512 589 41,000  Level Minneapolis Center
15:33 42.6283 -91.6111 78° East 513 590 41,000  Level Minneapolis Center
15:34 42.6633 -91.3886 78° East 519 597 41,000  Level Minneapolis Center
15:35 42.6931 -91.2039 78° East 514 592 41,000  Level Minneapolis Center
15:36 42.7222 -91.0161 78° East 514 592 41,000  Level Minneapolis Center
15:37 42.7572 -90.7894 78° East 517 595 41,000  Level Minneapolis Center
15:38 42.7861 -90.5997 78° East 518 596 41,000  Level Minneapolis Center
15:39 42.8142 -90.4083 79° East 520 598 41,000  Level Minneapolis Center
15:40 42.8458 -90.2106 78° East 518 596 41,000  Level Minneapolis Center
15:41 42.8772 -90.0200 77° East 515 593 41,000  Level Minneapolis Center
15:42 42.9169 -89.7314 79° East 514 592 41,000  Level Chicago Center
15:43 42.9297 -89.5364 85° East 516 594 41,000  Level Chicago Center
15:44 42.9214 -89.3067 93° East 519 597 41,000  Level Chicago Center
15:45 42.9169 -89.1094 92° East 520 598 41,000  Level Chicago Center
15:46 42.9114 -88.9131 92° East 521 600 41,000 -242 Level Chicago Center
15:47 42.9058 -88.7186 92° East 517 595 40,500 -968 Descending Chicago Center
15:49 42.8994 -88.5253 93° East 514 592 39,000 -1,824 Descending Chicago Center
15:50 42.8931 -88.2986 92° East 517 595 36,700 -2,064 Descending Chicago Center
15:51 42.8861 -88.1011 93° East 522 601 34,700 -1,694 Descending Chicago Center
15:52 42.8794 -87.9017 93° East 526 605 33,200 -823 Descending Chicago Center
15:53 42.8714 -87.6981 93° East 534 615 33,000 -97 Descending Chicago Center
15:54 42.8619 -87.4550 93° East 550 633 33,000  Level Chicago Center
15:55 42.8544 -87.2650 93° East 550 633 33,000  Level Chicago Center
15:56 42.8444 -87.0564 94° East 554 638 33,000  Level Chicago Center
15:57 42.8367 -86.8478 93° East 554 638 33,000  Level Chicago Center
15:58 42.8247 -86.5969 94° East 556 640 33,000 -242 Level Chicago Center
15:59 42.8142 -86.3894 94° East 555 639 32,500 -823 Descending Chicago Center
16:00 42.8033 -86.1847 94° East 551 634 31,300 -1,536 Descending Chicago Center
16:01 42.7922 -85.9806 94° East 552 635 29,300 -2,112 Descending Chicago Center
16:02 42.7797 -85.7414 94° East 542 624 26,900 -2,129 Descending Chicago Center
16:03 42.7697 -85.5489 94° East 524 603 24,900 -1,935 Descending Chicago Center
16:04 42.7592 -85.3619 94° East 506 582 22,900 -1,839 Descending Chicago Center
16:05 42.7481 -85.1803 95° East 489 563 21,100 -919 Descending Chicago Center
16:06 42.7378 -85.0031 94° East 475 547 21,000 -871 Descending Chicago Center
16:07 42.7244 -84.7978 95° East 457 526 19,300 -2,081 Descending Chicago Center
16:08 42.7161 -84.6339 94° East 438 504 16,700 -2,613 Descending Chicago Center
16:09 42.7150 -84.4739 90° East 426 490 13,900 -2,177 Descending Chicago Center
16:10 42.7131 -84.3286 91° East 391 450 12,200 -1,714 Descending Chicago Center
16:11 42.7103 -84.2483 93° East 366 421 11,100 -1,625 Descending Cleveland Center
16:12 42.7114 -84.1467 89° East 315 362 9,600 -1,600 Descending Cleveland Center
16:13 42.7189 -84.0397 85° East 279 321 7,900 -1,300 Descending Cleveland Center
16:14 42.7258 -83.9411 84° East 269 310 7,000 -450 Descending Cleveland Center
16:15 42.7331 -83.8397 84° East 269 310 7,000  Level Cleveland Center
16:16 42.7422 -83.7383 83° East 269 310 7,000  Level Cleveland Center
16:17 42.7514 -83.6286 83° East 269 310 7,000 -361 Level Cleveland Center
16:18 42.7606 -83.5103 84° East 257 296 6,200 -1,243 Descending Cleveland Center
16:19 42.7214 -83.4122 119° Southeast 271 312 4,100 -1,082 Descending Cleveland Center
16:20 42.6794 -83.3342 126° Southeast 268 308 4,000 -52 Descending Cleveland Center
16:21 42.6378 -83.2503 124° Southeast 267 307 4,000 -233 Level Cleveland Center
16:22 42.5747 -83.1772 140° Southeast 261 300 3,500 -465 Descending Cleveland Center
16:23 42.5197 -83.1242 145° Southeast 208 239 3,000 -569 Descending Cleveland Center
16:24 42.4850 -83.0833 139° Southeast 161 185 2,400 -724 Descending Cleveland Center
16:25 42.4544 -83.0569 147° Southeast 127 146 1,600 -787 Descending Cleveland Center
16:26 42.4239 -83.0247 142° Southeast 124 143 800 -787 Descending Cleveland Center

Login

Don't have an account? Register now (free) for customized features, flight alerts, and more!